createdAt,value
2023-03-03T00:01:33.959Z,50.58
2023-03-03T00:04:01.194Z,49.55
2023-03-03T00:06:29.964Z,50.10
2023-03-03T00:08:57.204Z,51.30
2023-03-03T00:11:24.133Z,54.10
2023-03-03T00:13:56.366Z,52.53
2023-03-03T00:16:35.298Z,50.03
2023-03-03T00:19:02.298Z,46.95
2023-03-03T00:21:40.365Z,45.90
2023-03-03T00:24:19.224Z,47.13
2023-03-03T00:26:49.112Z,45.15
2023-03-03T00:29:24.953Z,46.70
2023-03-03T00:31:54.910Z,60.78
2023-03-03T00:34:30.616Z,68.10
2023-03-03T00:36:58.562Z,66.60
2023-03-03T00:39:38.180Z,66.75
2023-03-03T00:42:15.398Z,65.15
2023-03-03T00:44:43.745Z,73.95
2023-03-03T00:47:31.177Z,74.30
2023-03-03T00:50:07.624Z,71.90
2023-03-03T00:52:37.869Z,72.47
2023-03-03T00:55:05.942Z,73.15
2023-03-03T00:57:32.800Z,69.10
2023-03-03T00:59:59.645Z,75.93
2023-03-03T01:02:26.631Z,82.38
2023-03-03T01:04:57.435Z,86.22
2023-03-03T01:07:24.259Z,89.22
2023-03-03T01:09:51.097Z,85.43
2023-03-03T01:12:18.204Z,88.97
2023-03-03T01:14:45.440Z,101.05
2023-03-03T01:17:12.368Z,107.45
2023-03-03T01:19:39.199Z,113.47
2023-03-03T01:22:06.138Z,118.03
2023-03-03T01:24:33.433Z,120.68
2023-03-03T01:27:00.420Z,111.05
2023-03-03T01:29:27.235Z,127.03
2023-03-03T01:31:54.199Z,110.55
2023-03-03T01:34:21.676Z,124.82
2023-03-03T01:36:48.655Z,132.90
2023-03-03T01:39:15.370Z,121.35
2023-03-03T01:41:42.307Z,124.57
2023-03-03T01:44:15.313Z,131.00
2023-03-03T01:47:01.154Z,135.57
2023-03-03T01:49:34.772Z,136.90
2023-03-03T01:52:08.986Z,134.02
2023-03-03T01:54:44.180Z,101.05
2023-03-03T01:57:21.860Z,119.20
2023-03-03T01:59:51.246Z,125.90
2023-03-03T02:02:18.744Z,116.70
2023-03-03T02:04:46.035Z,123.88
2023-03-03T02:07:15.165Z,110.68
2023-03-03T02:09:50.968Z,116.80
2023-03-03T02:12:20.369Z,118.20
2023-03-03T02:14:47.200Z,115.55
2023-03-03T02:17:14.041Z,113.25
2023-03-03T02:20:06.826Z,112.65
2023-03-03T02:22:46.724Z,110.03
2023-03-03T02:25:25.217Z,105.65
2023-03-03T02:27:52.653Z,112.03
2023-03-03T02:30:21.800Z,108.15
2023-03-03T02:32:48.592Z,115.03
2023-03-03T02:35:37.011Z,105.40
2023-03-03T02:38:18.128Z,109.10
2023-03-03T02:40:57.682Z,112.35
2023-03-03T02:43:29.721Z,97.00
2023-03-03T02:45:56.719Z,96.85
2023-03-03T02:48:23.549Z,97.35
2023-03-03T02:50:50.546Z,95.57
2023-03-03T02:53:17.406Z,96.28
2023-03-03T02:55:44.225Z,101.63
2023-03-03T02:58:11.018Z,101.47
2023-03-03T03:00:37.902Z,99.95
2023-03-03T03:03:04.920Z,99.80
2023-03-03T03:05:31.724Z,108.50
2023-03-03T03:07:58.582Z,111.90
2023-03-03T03:10:25.455Z,121.05
2023-03-03T03:12:52.856Z,116.13
2023-03-03T03:15:19.672Z,115.82
2023-03-03T03:17:46.438Z,112.63
2023-03-03T03:20:13.662Z,124.80
2023-03-03T03:22:40.634Z,121.47
2023-03-03T03:25:07.892Z,128.48
2023-03-03T03:27:34.688Z,121.40
2023-03-03T03:30:01.518Z,124.72
2023-03-03T03:32:28.417Z,137.50
2023-03-03T03:34:55.221Z,134.20
2023-03-03T03:37:22.303Z,139.75
2023-03-03T03:39:49.060Z,123.20
2023-03-03T03:42:15.890Z,124.53
2023-03-03T03:44:42.773Z,127.25
2023-03-03T03:47:09.833Z,117.22
2023-03-03T03:49:36.587Z,124.10
2023-03-03T03:52:03.585Z,126.03
2023-03-03T03:54:30.476Z,114.05
2023-03-03T03:56:57.436Z,112.15
2023-03-03T03:59:24.313Z,97.63
2023-03-03T04:01:51.146Z,102.32
2023-03-03T04:04:17.970Z,104.28
2023-03-03T04:06:47.350Z,94.20
2023-03-03T04:09:14.175Z,104.93
2023-03-03T04:11:40.961Z,113.65
2023-03-03T04:14:07.869Z,112.00
2023-03-03T04:16:34.730Z,122.22
2023-03-03T04:19:01.518Z,108.97
2023-03-03T04:21:28.338Z,106.40
2023-03-03T04:23:55.168Z,108.82
2023-03-03T04:26:22.031Z,118.97
2023-03-03T04:28:48.752Z,112.18
2023-03-03T04:31:15.619Z,111.05
2023-03-03T04:33:42.400Z,123.00
2023-03-03T04:36:09.191Z,119.07
2023-03-03T04:38:35.933Z,97.95
2023-03-03T04:41:02.779Z,117.93
2023-03-03T04:43:29.530Z,101.18
2023-03-03T04:45:56.529Z,99.50
2023-03-03T04:48:23.442Z,100.65
2023-03-03T04:50:50.230Z,98.93
2023-03-03T04:53:17.228Z,102.80
2023-03-03T04:55:44.016Z,103.05
2023-03-03T04:58:11.055Z,101.18
2023-03-03T05:00:38.301Z,109.70
2023-03-03T05:03:08.581Z,103.28
2023-03-03T05:05:35.469Z,102.65
2023-03-03T05:08:02.226Z,100.05
2023-03-03T05:10:29.680Z,101.47
2023-03-03T05:12:56.463Z,94.82
2023-03-03T05:15:23.407Z,89.82
2023-03-03T05:17:53.467Z,100.57
2023-03-03T05:20:20.278Z,100.88
2023-03-03T05:22:47.223Z,99.38
2023-03-03T05:25:14.085Z,98.60
2023-03-03T05:27:41.038Z,101.25
2023-03-03T05:30:08.850Z,100.85
2023-03-03T05:32:36.082Z,99.90
2023-03-03T05:35:04.053Z,101.80
2023-03-03T05:37:31.012Z,100.53
2023-03-03T05:39:57.855Z,93.70
2023-03-03T05:42:24.701Z,87.10
2023-03-03T05:44:51.550Z,101.00
2023-03-03T05:47:18.475Z,98.63
2023-03-03T05:49:45.244Z,91.63
2023-03-03T05:52:12.248Z,100.60
2023-03-03T05:54:40.912Z,95.05
2023-03-03T05:57:11.365Z,107.47
2023-03-03T05:59:38.153Z,99.57
2023-03-03T06:02:05.088Z,98.40
2023-03-03T06:04:32.038Z,102.13
2023-03-03T06:06:58.955Z,98.03
2023-03-03T06:09:26.384Z,96.72
2023-03-03T06:11:53.559Z,97.53
2023-03-03T06:14:26.007Z,96.22
2023-03-03T06:16:53.697Z,91.30
2023-03-03T06:19:20.557Z,98.93
2023-03-03T06:21:47.391Z,102.78
2023-03-03T06:24:14.250Z,103.82
2023-03-03T06:26:41.287Z,92.15
2023-03-03T06:29:08.140Z,89.45
2023-03-03T06:31:35.736Z,98.65
2023-03-03T06:34:02.986Z,95.78
2023-03-03T06:36:29.759Z,102.70
2023-03-03T06:38:56.562Z,98.75
2023-03-03T06:41:23.453Z,89.88
2023-03-03T06:43:50.192Z,95.20
2023-03-03T06:46:17.730Z,104.90
2023-03-03T06:48:44.664Z,100.15
2023-03-03T06:51:26.955Z,107.43
2023-03-03T06:53:56.623Z,95.05
2023-03-03T06:56:26.836Z,98.30
2023-03-03T06:58:58.320Z,106.05
2023-03-03T07:01:25.515Z,103.70
2023-03-03T07:03:52.465Z,107.35
2023-03-03T07:06:25.609Z,102.68
2023-03-03T07:08:53.549Z,102.13
2023-03-03T07:11:22.817Z,106.30
2023-03-03T07:13:55.057Z,106.85
2023-03-03T07:16:27.451Z,101.75
2023-03-03T07:18:56.683Z,108.20
2023-03-03T07:21:30.821Z,87.80
2023-03-03T07:23:58.513Z,70.40
2023-03-03T07:26:28.876Z,91.93
2023-03-03T07:28:59.040Z,88.70
2023-03-03T07:31:31.335Z,92.90
2023-03-03T07:34:00.001Z,97.63
2023-03-03T07:36:34.749Z,87.50
2023-03-03T07:39:12.150Z,91.35
2023-03-03T07:41:39.040Z,93.30
2023-03-03T07:44:13.738Z,85.03
2023-03-03T07:46:51.638Z,95.13
2023-03-03T07:49:35.206Z,98.50
2023-03-03T07:52:17.297Z,92.25
2023-03-03T07:54:46.004Z,85.57
2023-03-03T07:57:40.818Z,93.65
2023-03-03T08:00:16.889Z,88.87
2023-03-03T08:02:45.490Z,85.45
2023-03-03T08:05:30.114Z,88.38
2023-03-03T08:08:18.311Z,85.82
2023-03-03T08:10:52.765Z,101.55
2023-03-03T08:13:38.131Z,91.15
2023-03-03T08:18:41.984Z,96.43
2023-03-03T08:21:15.134Z,93.97
2023-03-03T08:23:42.454Z,105.95
2023-03-03T08:26:09.733Z,103.93
2023-03-03T08:28:36.596Z,94.68
2023-03-03T08:31:16.887Z,96.93
2023-03-03T08:33:49.299Z,83.72
2023-03-03T08:36:16.172Z,87.40
2023-03-03T08:38:43.034Z,93.70
2023-03-03T08:41:10.158Z,87.07
2023-03-03T08:43:36.995Z,82.05
2023-03-03T08:46:05.902Z,87.65
2023-03-03T08:48:33.870Z,90.35
2023-03-03T08:51:01.003Z,92.80
2023-03-03T08:53:28.995Z,82.72
2023-03-03T08:55:56.042Z,87.97
2023-03-03T08:58:33.591Z,85.50
2023-03-03T09:01:05.079Z,92.45
2023-03-03T09:03:32.563Z,82.13
2023-03-03T09:05:59.828Z,89.15
2023-03-03T09:08:26.990Z,90.05
2023-03-03T09:10:54.229Z,94.80
2023-03-03T09:13:21.877Z,89.63
2023-03-03T09:15:50.542Z,99.97
2023-03-03T09:18:37.816Z,89.97
2023-03-03T09:21:23.918Z,95.30
2023-03-03T09:23:57.196Z,89.75
2023-03-03T09:26:28.338Z,93.32
2023-03-03T09:29:17.040Z,95.70
2023-03-03T09:32:25.436Z,96.15
2023-03-03T09:34:52.318Z,89.45
2023-03-03T09:37:36.453Z,90.45
2023-03-03T09:40:38.017Z,91.63
2023-03-03T09:43:19.896Z,93.93
2023-03-03T09:46:02.213Z,100.43
2023-03-03T09:48:33.512Z,95.50
2023-03-03T09:51:22.684Z,91.50
2023-03-03T09:54:09.573Z,97.05
2023-03-03T09:56:46.185Z,97.43
2023-03-03T09:59:22.081Z,84.55
2023-03-03T10:01:54.770Z,90.57
2023-03-03T10:04:46.588Z,93.03
2023-03-03T10:07:16.355Z,100.72
2023-03-03T10:10:22.542Z,92.00
2023-03-03T10:13:00.161Z,84.13
2023-03-03T10:15:54.635Z,97.15
2023-03-03T10:18:36.861Z,87.78
2023-03-03T10:21:29.766Z,90.85
2023-03-03T10:24:02.536Z,90.80
2023-03-03T10:26:44.803Z,114.10
2023-03-03T10:29:39.884Z,110.78
2023-03-03T10:32:42.776Z,115.63
2023-03-03T10:35:23.144Z,113.20
2023-03-03T10:38:33.567Z,108.57
2023-03-03T10:41:37.007Z,97.55
2023-03-03T10:44:28.690Z,87.72
2023-03-03T10:47:29.408Z,81.63
2023-03-03T10:50:21.006Z,85.03
2023-03-03T10:53:11.970Z,82.03
2023-03-03T10:56:03.967Z,81.80
2023-03-03T10:58:44.378Z,71.53
2023-03-03T11:01:36.065Z,68.40
2023-03-03T11:04:25.421Z,72.20
2023-03-03T11:07:33.580Z,72.35
2023-03-03T11:10:29.041Z,61.10
2023-03-03T11:13:11.159Z,68.22
2023-03-03T11:16:11.813Z,66.60
2023-03-03T11:18:41.691Z,61.70
2023-03-03T11:21:34.813Z,65.70
2023-03-03T11:24:15.382Z,58.83
2023-03-03T11:27:12.314Z,59.45
2023-03-03T11:29:48.658Z,61.90
2023-03-03T11:32:50.711Z,57.78
2023-03-03T11:35:23.465Z,59.08
2023-03-03T11:38:14.700Z,56.80
2023-03-03T11:40:53.641Z,59.35
2023-03-03T11:43:37.310Z,56.25
2023-03-03T11:46:15.429Z,54.33
2023-03-03T11:49:00.736Z,62.15
2023-03-03T11:51:54.166Z,52.38
2023-03-03T11:55:06.604Z,51.28
2023-03-03T11:57:41.732Z,52.22
2023-03-03T12:02:58.714Z,53.13
2023-03-03T12:05:36.559Z,55.70
2023-03-03T12:08:12.396Z,53.53
2023-03-03T12:11:05.108Z,55.30
2023-03-03T12:13:50.696Z,49.08
2023-03-03T12:16:20.573Z,45.95
2023-03-03T12:19:02.872Z,51.80
2023-03-03T12:21:47.849Z,43.97
2023-03-03T12:25:00.300Z,42.20
2023-03-03T12:27:35.621Z,43.40
2023-03-03T12:30:13.263Z,39.67
2023-03-03T12:33:18.562Z,43.80
2023-03-03T12:36:09.616Z,34.93
2023-03-03T12:39:07.810Z,45.92
2023-03-03T12:41:44.990Z,41.28
2023-03-03T12:44:35.671Z,44.40
2023-03-03T12:47:15.142Z,41.10
2023-03-03T12:50:07.664Z,43.40
2023-03-03T12:52:51.435Z,45.50
2023-03-03T12:55:43.897Z,43.63
2023-03-03T12:58:20.396Z,43.33
2023-03-03T13:01:34.006Z,37.28
2023-03-03T13:04:29.255Z,44.22
2023-03-03T13:06:56.144Z,42.88
2023-03-03T13:09:53.318Z,49.28
2023-03-03T13:12:20.141Z,45.90
2023-03-03T13:14:52.947Z,55.33
2023-03-03T13:17:31.958Z,50.83
2023-03-03T13:20:06.161Z,52.83
2023-03-03T13:22:41.826Z,42.03
2023-03-03T13:25:38.390Z,47.08
2023-03-03T13:28:23.478Z,51.65
2023-03-03T13:30:56.339Z,51.33
2023-03-03T13:33:27.476Z,38.00
2023-03-03T13:36:02.157Z,54.63
2023-03-03T13:38:31.482Z,52.15
2023-03-03T13:41:09.914Z,52.60
2023-03-03T13:43:47.135Z,55.25
2023-03-03T13:46:39.073Z,59.25
2023-03-03T13:49:20.966Z,57.88
2023-03-03T13:52:10.002Z,58.45
2023-03-03T13:54:39.782Z,55.63
2023-03-03T13:57:29.622Z,53.53
2023-03-03T14:00:33.900Z,57.22
2023-03-03T14:03:10.314Z,64.68
2023-03-03T14:05:56.504Z,62.15
2023-03-03T14:08:53.775Z,66.47
2023-03-03T14:11:37.804Z,61.20
2023-03-03T14:14:37.798Z,64.63
2023-03-03T14:17:13.227Z,64.18
2023-03-03T14:19:53.256Z,66.57
2023-03-03T14:22:45.407Z,76.18
2023-03-03T14:25:16.381Z,72.32
2023-03-03T14:27:49.353Z,78.45
2023-03-03T14:30:22.277Z,71.50
2023-03-03T14:33:08.026Z,59.17
2023-03-03T14:35:40.585Z,75.07
2023-03-03T14:38:14.770Z,71.43
2023-03-03T14:40:45.440Z,46.80
2023-03-03T14:44:04.623Z,73.15
2023-03-03T14:46:37.573Z,70.65
2023-03-03T14:49:14.515Z,74.25
2023-03-03T14:51:44.534Z,78.40
2023-03-03T14:54:30.192Z,67.47
2023-03-03T14:57:18.040Z,68.05
2023-03-03T15:00:13.871Z,70.78
2023-03-03T15:03:21.412Z,69.00
2023-03-03T15:05:58.007Z,79.88
2023-03-03T15:08:37.805Z,74.05
2023-03-03T15:11:18.473Z,69.85
2023-03-03T15:13:45.841Z,69.65
2023-03-03T15:16:19.239Z,67.07
2023-03-03T15:19:01.090Z,65.75
2023-03-03T15:21:33.182Z,62.13
2023-03-03T15:24:06.398Z,64.40
2023-03-03T15:27:01.732Z,66.88
2023-03-03T15:29:49.088Z,66.68
2023-03-03T15:32:30.318Z,60.95
2023-03-03T15:35:06.031Z,62.83
2023-03-03T15:37:37.295Z,67.00
2023-03-03T15:40:29.639Z,65.00
2023-03-03T15:43:22.133Z,56.90
2023-03-03T15:46:07.738Z,65.22
2023-03-03T15:49:04.156Z,70.32
2023-03-03T15:52:03.189Z,73.82
2023-03-03T15:55:11.922Z,59.70
2023-03-03T15:58:24.074Z,60.50
2023-03-03T16:01:31.379Z,65.05
2023-03-03T16:04:15.870Z,59.58
2023-03-03T16:07:16.282Z,47.27
2023-03-03T16:09:58.364Z,64.28
2023-03-03T16:12:43.316Z,57.70
2023-03-03T16:15:40.409Z,58.45
2023-03-03T16:18:24.677Z,62.10
2023-03-03T16:21:14.126Z,57.85
2023-03-03T16:23:52.186Z,53.60
2023-03-03T16:26:32.973Z,54.03
2023-03-03T16:29:30.900Z,58.42
2023-03-03T16:32:53.614Z,58.83
2023-03-03T16:35:32.695Z,59.33
2023-03-03T16:37:59.525Z,49.60
2023-03-03T16:40:50.168Z,51.92
2023-03-03T16:43:41.672Z,55.58
2023-03-03T16:46:29.974Z,51.30
2023-03-03T16:49:24.335Z,58.20
2023-03-03T16:52:02.535Z,60.35
2023-03-03T16:54:34.088Z,57.60
2023-03-03T16:57:28.276Z,58.25
2023-03-03T17:00:09.830Z,58.40
2023-03-03T17:02:55.104Z,59.80
2023-03-03T17:05:40.290Z,57.67
2023-03-03T17:08:28.569Z,56.67
2023-03-03T17:11:06.537Z,52.47
2023-03-03T17:13:58.474Z,55.03
2023-03-03T17:16:56.794Z,57.45
2023-03-03T17:19:44.081Z,53.75
2023-03-03T17:22:40.073Z,62.03
2023-03-03T17:25:17.049Z,51.47
2023-03-03T17:28:02.549Z,59.00
2023-03-03T17:30:53.798Z,50.83
2023-03-03T17:33:23.701Z,52.45
2023-03-03T17:36:22.640Z,47.03
2023-03-03T17:39:07.796Z,46.72
2023-03-03T17:42:00.630Z,41.80
2023-03-03T17:44:46.283Z,49.78
2023-03-03T17:47:24.677Z,52.17
2023-03-03T17:50:09.877Z,55.83
2023-03-03T17:53:08.159Z,61.17
2023-03-03T17:56:09.034Z,50.03
2023-03-03T17:59:03.229Z,46.33
2023-03-03T18:01:39.187Z,50.15
2023-03-03T18:04:12.579Z,49.20
2023-03-03T18:06:54.377Z,50.95
2023-03-03T18:09:40.212Z,60.67
2023-03-03T18:12:24.611Z,57.20
2023-03-03T18:15:12.769Z,39.78
2023-03-03T18:18:01.404Z,53.25
2023-03-03T18:20:46.375Z,51.80
2023-03-03T18:23:34.277Z,55.25
2023-03-03T18:26:03.311Z,55.65
2023-03-03T18:28:49.761Z,53.65
2023-03-03T18:31:23.781Z,54.10
2023-03-03T18:34:08.001Z,36.42
2023-03-03T18:36:38.402Z,46.53
2023-03-03T18:39:07.209Z,43.65
2023-03-03T18:42:06.162Z,46.53
2023-03-03T18:44:33.016Z,47.03
2023-03-03T18:47:00.262Z,50.17
2023-03-03T18:49:48.838Z,55.22
2023-03-03T18:52:30.877Z,53.60
2023-03-03T18:55:09.334Z,46.80
2023-03-03T18:57:37.277Z,40.33
2023-03-03T19:00:17.023Z,43.03
2023-03-03T19:02:56.619Z,50.22
2023-03-03T19:05:25.243Z,58.45
2023-03-03T19:07:56.870Z,55.15
2023-03-03T19:10:54.698Z,49.95
2023-03-03T19:13:39.191Z,50.10
2023-03-03T19:16:09.453Z,32.40
2023-03-03T19:18:56.242Z,34.42
2023-03-03T19:21:32.046Z,34.88
2023-03-03T19:24:04.610Z,36.67
2023-03-03T19:27:14.057Z,36.05
2023-03-03T19:29:46.953Z,28.92
2023-03-03T19:32:43.937Z,29.77
2023-03-03T19:35:28.927Z,27.75
2023-03-03T19:38:10.869Z,23.67
2023-03-03T19:40:46.959Z,17.33
2023-03-03T19:43:35.146Z,15.63
2023-03-03T19:46:04.953Z,18.05
2023-03-03T19:48:35.655Z,12.02
2023-03-03T19:51:23.049Z,12.27
2023-03-03T19:54:03.344Z,11.55
2023-03-03T19:56:49.183Z,11.38
2023-03-03T19:59:25.033Z,24.00
2023-03-03T20:02:14.075Z,22.42
2023-03-03T20:05:12.117Z,15.45
2023-03-03T20:08:01.790Z,13.93
2023-03-03T20:10:48.824Z,11.25
2023-03-03T20:13:30.988Z,9.57
2023-03-03T20:16:16.880Z,9.77
2023-03-03T20:19:14.713Z,12.90
2023-03-03T20:22:00.171Z,15.05
2023-03-03T20:27:02.857Z,8.77
2023-03-03T20:29:59.681Z,11.05
2023-03-03T20:32:39.720Z,12.50
2023-03-03T20:35:12.784Z,13.82
2023-03-03T20:37:52.161Z,15.50
2023-03-03T20:40:31.692Z,17.33
2023-03-03T20:43:11.841Z,15.32
2023-03-03T20:46:08.108Z,18.65
2023-03-03T20:48:35.145Z,29.02
2023-03-03T20:51:26.636Z,26.55
2023-03-03T20:54:22.283Z,15.80
2023-03-03T20:59:39.045Z,15.70
2023-03-03T21:02:12.118Z,16.05
2023-03-03T21:04:39.137Z,14.02
2023-03-03T21:07:06.340Z,18.15
2023-03-03T21:09:34.604Z,20.13
2023-03-03T21:12:11.030Z,15.95
2023-03-03T21:14:38.645Z,20.00
2023-03-03T21:17:26.848Z,20.70
2023-03-03T21:19:54.148Z,18.17
2023-03-03T21:22:21.397Z,22.85
2023-03-03T21:24:54.102Z,19.55
2023-03-03T21:27:30.045Z,19.65
2023-03-03T21:30:17.481Z,27.00
2023-03-03T21:32:47.896Z,18.63
2023-03-03T21:35:18.342Z,23.67
2023-03-03T21:37:50.035Z,20.63
2023-03-03T21:40:25.246Z,22.45
2023-03-03T21:42:54.800Z,22.92
2023-03-03T21:45:22.070Z,22.60
2023-03-03T21:47:48.944Z,30.98
2023-03-03T21:50:17.116Z,25.50
2023-03-03T21:52:43.954Z,27.58
2023-03-03T21:55:12.144Z,23.73
2023-03-03T21:57:39.382Z,28.48
2023-03-03T22:00:09.073Z,26.23
2023-03-03T22:02:36.635Z,21.38
2023-03-03T22:05:04.429Z,31.27
2023-03-03T22:07:31.284Z,24.13
2023-03-03T22:09:58.110Z,21.75
2023-03-03T22:12:25.002Z,23.23
2023-03-03T22:14:52.172Z,29.30
2023-03-03T22:17:19.078Z,31.23
2023-03-03T22:19:46.029Z,25.10
2023-03-03T22:22:13.148Z,24.88
2023-03-03T22:24:39.989Z,23.65
2023-03-03T22:27:07.670Z,25.20
2023-03-03T22:29:34.498Z,29.42
2023-03-03T22:32:01.500Z,28.10
2023-03-03T22:34:28.529Z,17.80
2023-03-03T22:36:55.451Z,19.25
2023-03-03T22:39:22.259Z,22.17
2023-03-03T22:41:52.164Z,23.67
2023-03-03T22:44:19.012Z,31.30
2023-03-03T22:46:45.932Z,24.48
2023-03-03T22:49:12.949Z,24.85
2023-03-03T22:51:39.862Z,22.58
2023-03-03T22:54:06.825Z,29.60
2023-03-03T22:56:33.852Z,23.05
2023-03-03T22:59:00.640Z,23.88
2023-03-03T23:01:27.619Z,29.73
2023-03-03T23:03:54.503Z,22.83
2023-03-03T23:06:21.792Z,24.10
2023-03-03T23:08:48.965Z,25.98
2023-03-03T23:11:15.864Z,27.40
2023-03-03T23:13:42.790Z,25.70
2023-03-03T23:16:09.639Z,28.35
2023-03-03T23:18:37.028Z,33.75
2023-03-03T23:21:04.749Z,31.88
2023-03-03T23:23:34.306Z,23.80
2023-03-03T23:26:01.266Z,30.08
2023-03-03T23:28:28.299Z,22.42
2023-03-03T23:30:55.360Z,21.52
2023-03-03T23:33:22.439Z,25.10
2023-03-03T23:35:49.943Z,24.35
2023-03-03T23:38:17.870Z,29.63
2023-03-03T23:40:46.893Z,21.98
2023-03-03T23:43:14.848Z,22.65
2023-03-03T23:45:42.063Z,22.25
2023-03-03T23:48:09.398Z,29.60
2023-03-03T23:50:39.541Z,32.92
2023-03-03T23:53:07.435Z,28.52
2023-03-03T23:55:36.262Z,36.78
2023-03-03T23:58:03.325Z,39.67
